Time;durP1;ratioP1;P1;durP2;ratioP2;P2;SDS_P1;SDS_P2;PMS_P1;PMS_P2;Temp;Humidity;BMP_temperature;BMP_pressure;BME280_temperature;BME280_humidity;BME280_pressure;Samples;Min_cycle;Max_cycle;Signal;HPM_P1;HPM_P2
2021/12/06 00:01:17;;;;;;;63.50;33.38;;;;;;;2.37;75.15;100617.31;4143321;28;20058;-60
2021/12/06 00:03:28;;;;;;;66.63;35.13;;;;;;;2.38;74.82;100620.75;4143684;28;20561;-59
2021/12/06 00:05:32;;;;;;;59.70;32.03;;;;;;;2.42;74.34;100623.56;4147911;28;20034;-61
2021/12/06 00:07:38;;;;;;;62.03;35.78;;;;;;;2.30;75.08;100622.94;4146670;28;20081;-60
2021/12/06 00:09:40;;;;;;;59.40;32.13;;;;;;;2.33;75.49;100619.66;4147761;28;20080;-61
2021/12/06 00:11:44;;;;;;;58.63;32.17;;;;;;;2.33;74.67;100615.38;4148242;28;20053;-61
2021/12/06 00:13:49;;;;;;;64.57;35.88;;;;;;;2.39;75.14;100614.81;4146886;28;20041;-58
2021/12/06 00:15:52;;;;;;;62.83;35.72;;;;;;;2.41;74.47;100619.22;4149213;28;20042;-59
2021/12/06 00:17:57;;;;;;;59.90;33.83;;;;;;;2.43;74.12;100620.16;4147781;28;20042;-61
2021/12/06 00:20:00;;;;;;;59.70;34.95;;;;;;;2.31;73.60;100627.28;4147289;28;20096;-59
2021/12/06 00:22:08;;;;;;;59.65;33.75;;;;;;;2.21;73.86;100617.34;4147755;28;20526;-61
2021/12/06 00:24:11;;;;;;;59.80;33.45;;;;;;;2.15;74.53;100629.88;4148017;28;20042;-60
2021/12/06 00:26:14;;;;;;;58.65;33.35;;;;;;;2.22;74.33;100627.69;4145549;28;20073;-58
2021/12/06 00:28:17;;;;;;;55.95;31.45;;;;;;;2.20;74.76;100631.84;4147143;28;20045;-59
2021/12/06 00:30:20;;;;;;;57.50;33.97;;;;;;;2.30;74.31;100643.47;4146158;28;20499;-57
2021/12/06 00:32:24;;;;;;;58.47;33.88;;;;;;;2.37;73.73;100642.09;4146665;28;20037;-59
2021/12/06 00:34:32;;;;;;;65.70;36.28;;;;;;;2.43;74.49;100640.69;4147691;28;20100;-56
2021/12/06 00:36:44;;;;;;;62.70;34.72;;;;;;;2.40;74.22;100644.81;4148748;28;20057;-58
2021/12/06 00:38:47;;;;;;;67.13;34.58;;;;;;;2.32;73.90;100636.72;4147385;28;20131;-60
2021/12/06 00:40:51;;;;;;;61.40;34.22;;;;;;;2.30;74.01;100647.72;4146820;28;20045;-58
2021/12/06 00:42:54;;;;;;;62.00;34.08;;;;;;;2.21;74.61;100650.69;4146879;28;20491;-60
2021/12/06 00:44:58;;;;;;;;;;;;;;;2.13;74.92;100654.53;4147550;28;20045;-59
2021/12/06 00:47:01;;;;;;;62.97;33.53;;;;;;;2.21;74.50;100648.13;4151617;28;19920;-58
2021/12/06 00:49:05;;;;;;;64.22;35.42;;;;;;;2.23;74.32;100649.06;4146846;28;20044;-58
2021/12/06 00:51:11;;;;;;;58.05;32.47;;;;;;;2.33;74.19;100663.25;4145257;28;20128;-58
2021/12/06 00:53:14;;;;;;;58.03;34.72;;;;;;;2.41;74.07;100652.59;4146248;28;20076;-56
2021/12/06 00:55:18;;;;;;;61.80;34.85;;;;;;;2.35;73.38;100669.34;4129894;28;20053;-60
2021/12/06 00:57:21;;;;;;;60.53;35.65;;;;;;;2.30;73.63;100663.97;4147746;28;20034;-59
2021/12/06 00:59:25;;;;;;;66.35;38.22;;;;;;;2.38;73.45;100661.78;4146756;28;20392;-60
2021/12/06 01:01:28;;;;;;;62.75;35.60;;;;;;;2.30;72.86;100663.97;4148325;28;20394;-58
2021/12/06 01:03:34;;;;;;;66.07;36.13;;;;;;;2.27;73.37;100674.09;4130182;28;20042;-59
2021/12/06 01:05:38;;;;;;;57.55;34.38;;;;;;;2.21;74.05;100678.91;4147389;28;20073;-60
2021/12/06 01:07:43;;;;;;;58.78;34.97;;;;;;;2.31;73.48;100677.69;4145786;28;20050;-60
2021/12/06 01:09:46;;;;;;;66.78;35.70;;;;;;;2.30;73.08;100681.94;4145875;28;20619;-61
2021/12/06 01:11:49;;;;;;;63.78;36.72;;;;;;;2.38;72.75;100690.91;4143840;28;20073;-60
2021/12/06 01:13:56;;;;;;;64.43;36.17;;;;;;;2.27;72.60;100685.22;4147157;28;20555;-59
2021/12/06 01:16:01;;;;;;;65.20;38.40;;;;;;;2.08;73.15;100698.78;4162272;28;20140;-59
2021/12/06 01:18:06;;;;;;;64.72;36.55;;;;;;;2.08;73.42;100700.47;4146762;28;20057;-59
2021/12/06 01:20:15;;;;;;;63.17;36.80;;;;;;;2.19;73.22;100701.00;4129033;28;20078;-61
2021/12/06 01:22:25;;;;;;;64.82;37.67;;;;;;;2.12;72.95;100704.97;4155432;28;20522;-60
2021/12/06 01:24:38;;;;;;;78.07;39.92;;;;;;;2.10;73.50;100703.97;4145361;28;20050;-59
2021/12/06 01:27:02;;;;;;;63.95;37.42;;;;;;;2.05;73.65;100703.75;4129541;28;20121;-60
2021/12/06 01:29:25;;;;;;;71.00;38.05;;;;;;;2.13;73.68;100711.84;4129172;28;20046;-61
2021/12/06 01:31:40;;;;;;;64.40;37.53;;;;;;;2.07;73.70;100711.53;4145541;28;20149;-59
2021/12/06 01:40:47;;;;;;;67.20;37.47;;;;;;;2.23;73.51;100718.34;4146763;28;20068;-57
2021/12/06 01:42:50;;;;;;;68.20;37.55;;;;;;;2.18;73.48;100725.78;4146059;28;20061;-59
2021/12/06 01:44:56;;;;;;;62.15;35.15;;;;;;;2.24;73.24;100720.09;4146736;28;20052;-59
2021/12/06 01:47:08;;;;;;;58.03;35.92;;;;;;;2.14;73.49;100723.88;4146475;28;20069;-58
2021/12/06 01:49:11;;;;;;;59.10;34.30;;;;;;;1.94;74.36;100720.25;4145554;28;20046;-56
2021/12/06 01:51:15;;;;;;;58.10;34.37;;;;;;;1.95;74.25;100726.28;4132022;28;20415;-58
2021/12/06 01:53:18;;;;;;;60.33;34.78;;;;;;;1.84;75.02;100728.25;4139428;28;20100;-61
2021/12/06 01:55:23;;;;;;;58.03;35.35;;;;;;;1.82;75.31;100727.28;4144815;28;20435;-59
2021/12/06 01:57:31;;;;;;;56.42;32.85;;;;;;;1.77;75.58;100732.19;4133569;28;20061;-61
2021/12/06 01:59:35;;;;;;;56.72;33.47;;;;;;;1.86;75.57;100730.09;4144959;28;20042;-61
2021/12/06 02:01:38;;;;;;;59.58;35.05;;;;;;;1.90;75.75;100734.59;4145300;28;20128;-58
2021/12/06 02:03:41;;;;;;;54.90;34.25;;;;;;;1.84;75.76;100733.38;4145037;28;20046;-57
2021/12/06 02:05:48;;;;;;;53.35;33.88;;;;;;;1.85;76.04;100742.84;4146077;28;20100;-60
2021/12/06 02:07:56;;;;;;;54.03;35.10;;;;;;;1.93;75.76;100739.00;4129148;28;20057;-57
2021/12/06 02:09:59;;;;;;;54.03;34.10;;;;;;;1.80;75.33;100744.28;4145715;28;20046;-59
2021/12/06 02:12:08;;;;;;;54.03;32.50;;;;;;;1.76;76.21;100742.34;4144819;28;20046;-59
2021/12/06 02:14:26;;;;;;;51.85;32.58;;;;;;;1.83;76.47;100742.75;4146208;28;20435;-59
2021/12/06 02:16:37;;;;;;;55.85;33.80;;;;;;;1.90;75.97;100744.84;4146506;28;20126;-59
2021/12/06 02:18:46;;;;;;;50.95;32.28;;;;;;;1.94;75.86;100745.88;4149636;28;20534;-60
2021/12/06 02:21:01;;;;;;;51.22;30.92;;;;;;;2.03;75.78;100742.94;4147712;28;20042;-60
2021/12/06 02:23:04;;;;;;;;;;;;;;;1.88;75.99;100745.56;4134474;28;20466;-62
2021/12/06 02:25:15;;;;;;;54.60;32.47;;;;;;;1.89;76.28;100745.63;4138510;28;19954;-62
2021/12/06 02:27:21;;;;;;;61.05;34.95;;;;;;;1.97;75.88;100751.19;4148236;28;20044;-60
2021/12/06 02:29:24;;;;;;;54.08;34.58;;;;;;;1.97;75.83;100742.59;4150799;28;20116;-59
2021/12/06 02:31:28;;;;;;;54.70;34.80;;;;;;;2.06;75.72;100745.69;4135103;28;20141;-60
2021/12/06 02:33:32;;;;;;;52.03;34.35;;;;;;;2.08;75.77;100751.75;4132086;28;20058;-59
2021/12/06 02:35:35;;;;;;;53.53;33.97;;;;;;;2.07;75.82;100750.00;4149201;28;20116;-61
2021/12/06 02:37:40;;;;;;;54.53;34.17;;;;;;;2.05;75.50;100755.03;4148061;28;20078;-61
2021/12/06 02:39:44;;;;;;;58.33;33.28;;;;;;;2.08;75.51;100762.00;4133819;28;20057;-58
2021/12/06 02:41:48;;;;;;;54.00;33.17;;;;;;;1.96;74.93;100759.69;4155011;28;20064;-61
2021/12/06 02:43:53;;;;;;;47.35;32.53;;;;;;;1.93;75.62;100756.97;4147778;28;20137;-61
2021/12/06 02:45:56;;;;;;;51.25;32.60;;;;;;;1.94;75.95;100760.38;4148569;28;20054;-60
2021/12/06 02:48:02;;;;;;;52.88;32.20;;;;;;;1.96;76.10;100752.00;4149170;28;20041;-61
2021/12/06 02:50:11;;;;;;;51.22;31.20;;;;;;;2.03;75.82;100766.91;4148442;28;20133;-60
2021/12/06 02:52:15;;;;;;;51.95;32.38;;;;;;;2.04;75.68;100766.09;4148472;28;20104;-61
2021/12/06 02:54:21;;;;;;;48.92;30.67;;;;;;;2.04;76.00;100767.78;4149306;28;20128;-60
2021/12/06 02:56:33;;;;;;;50.15;30.98;;;;;;;2.10;75.63;100770.66;4147946;28;20407;-60
2021/12/06 02:58:56;;;;;;;52.33;32.63;;;;;;;2.09;75.71;100768.91;4157420;28;20409;-61
2021/12/06 03:01:02;;;;;;;47.13;29.80;;;;;;;2.14;75.33;100772.59;4147224;28;20070;-60
2021/12/06 03:03:06;;;;;;;43.90;29.23;;;;;;;2.16;75.33;100773.56;4146766;28;20069;-59
2021/12/06 03:05:09;;;;;;;45.03;29.25;;;;;;;2.14;74.21;100769.16;4148480;28;20064;-61
2021/12/06 03:07:15;;;;;;;45.92;29.60;;;;;;;2.05;74.21;100770.41;4146305;22;20129;-60
2021/12/06 03:09:23;;;;;;;45.35;29.13;;;;;;;1.97;74.95;100776.84;4195003;28;20094;-58
2021/12/06 03:11:29;;;;;;;44.28;29.55;;;;;;;2.07;75.14;100780.75;4164001;28;20532;-58
2021/12/06 03:13:32;;;;;;;46.08;29.17;;;;;;;2.04;74.81;100780.59;4152215;28;20054;-58
2021/12/06 03:15:36;;;;;;;42.65;27.80;;;;;;;1.97;75.08;100788.75;4158837;28;20092;-58
2021/12/06 03:17:39;;;;;;;40.50;26.50;;;;;;;1.98;75.24;100781.16;4180853;28;20166;-58
2021/12/06 03:19:43;;;;;;;44.47;27.85;;;;;;;2.06;74.96;100781.59;4167769;28;20037;-59
2021/12/06 03:21:46;;;;;;;42.10;26.27;;;;;;;2.08;74.59;100783.41;4147248;28;20126;-61
2021/12/06 03:23:53;;;;;;;44.25;27.13;;;;;;;2.05;74.73;100790.94;4179639;28;20079;-59
2021/12/06 03:25:58;;;;;;;50.28;28.80;;;;;;;2.13;74.64;100788.78;4146993;28;20058;-61
2021/12/06 03:28:01;;;;;;;46.22;30.45;;;;;;;2.08;74.40;100798.78;4163365;28;20540;-61
2021/12/06 03:30:08;;;;;;;50.67;31.80;;;;;;;2.03;74.62;100802.81;4146535;28;20076;-61
2021/12/06 03:32:11;;;;;;;;;;;;;;;1.84;75.31;100794.91;4147267;28;20042;-60
2021/12/06 03:34:18;;;;;;;47.30;28.15;;;;;;;1.88;75.46;100799.41;4175720;28;19962;-59
2021/12/06 03:36:26;;;;;;;47.58;29.52;;;;;;;2.03;75.15;100789.09;4179876;28;20045;-60
2021/12/06 03:38:29;;;;;;;53.90;31.80;;;;;;;2.04;74.94;100809.69;4174603;28;20042;-61
2021/12/06 03:40:32;;;;;;;51.38;30.27;;;;;;;2.03;74.81;100797.69;4146305;28;20049;-60
2021/12/06 03:42:37;;;;;;;51.50;30.20;;;;;;;2.04;74.97;100806.25;4179487;28;20273;-59
2021/12/06 03:44:40;;;;;;;52.85;31.15;;;;;;;2.00;75.14;100802.66;4162864;28;20421;-58
2021/12/06 03:46:47;;;;;;;49.95;28.85;;;;;;;2.09;74.54;100797.13;4167524;28;20037;-61
2021/12/06 03:48:50;;;;;;;48.45;28.67;;;;;;;2.03;74.50;100805.38;4162882;28;20054;-58
2021/12/06 03:50:55;;;;;;;52.40;30.85;;;;;;;2.01;74.93;100808.66;4175787;28;20049;-60
2021/12/06 03:52:59;;;;;;;52.80;30.92;;;;;;;2.14;74.56;100811.06;4170135;28;20048;-60
2021/12/06 03:55:04;;;;;;;51.35;29.25;;;;;;;2.05;74.78;100821.72;4165174;28;20059;-60
2021/12/06 03:57:08;;;;;;;49.65;30.17;;;;;;;2.04;74.96;100819.94;4146625;28;20046;-60
2021/12/06 03:59:13;;;;;;;51.17;30.08;;;;;;;2.14;75.10;100815.31;4178783;28;20136;-61
2021/12/06 04:01:18;;;;;;;42.47;26.70;;;;;;;2.05;75.07;100814.00;4174639;28;20105;-59
2021/12/06 04:03:25;;;;;;;51.22;30.20;;;;;;;2.14;75.17;100823.03;4162016;28;20116;-61
2021/12/06 04:05:29;;;;;;;48.67;29.13;;;;;;;2.18;74.96;100814.69;4162173;28;20120;-59
2021/12/06 04:07:32;;;;;;;48.92;29.77;;;;;;;2.30;74.01;100817.91;4162556;28;20041;-60
2021/12/06 04:09:36;;;;;;;55.22;32.13;;;;;;;2.34;73.85;100816.41;4179743;28;20045;-60
2021/12/06 04:11:40;;;;;;;51.40;29.73;;;;;;;2.08;74.16;100832.13;4162832;28;20069;-60
2021/12/06 04:13:44;;;;;;;56.15;31.20;;;;;;;2.03;75.00;100828.44;4160233;28;20568;-61
2021/12/06 04:15:49;;;;;;;52.43;31.63;;;;;;;2.01;74.83;100824.91;4165186;28;20106;-61
2021/12/06 04:17:54;;;;;;;50.25;30.95;;;;;;;2.03;75.02;100848.06;4163145;28;20057;-60
2021/12/06 04:19:57;;;;;;;53.42;30.52;;;;;;;2.00;75.11;100847.91;4146341;28;20145;-61
2021/12/06 04:22:00;;;;;;;55.78;31.65;;;;;;;1.99;75.85;100839.34;4164401;28;20049;-60
2021/12/06 04:24:06;;;;;;;51.50;29.55;;;;;;;2.09;75.01;100851.84;4146160;28;20054;-60
2021/12/06 04:26:09;;;;;;;51.65;31.45;;;;;;;2.03;75.18;100853.19;4179836;28;20094;-60
2021/12/06 04:28:15;;;;;;;55.03;31.88;;;;;;;2.01;75.60;100854.78;4180639;28;20037;-61
2021/12/06 04:30:20;;;;;;;53.97;31.20;;;;;;;2.05;75.59;100860.19;4162306;28;20193;-60
2021/12/06 04:32:25;;;;;;;51.15;31.83;;;;;;;2.05;75.60;100861.88;4162437;28;20053;-60
2021/12/06 04:34:28;;;;;;;49.80;29.20;;;;;;;2.04;75.49;100862.66;4152011;28;20084;-60
2021/12/06 04:36:31;;;;;;;54.90;29.73;;;;;;;2.06;74.72;100863.66;4147266;28;20041;-62
2021/12/06 04:38:35;;;;;;;43.55;27.27;;;;;;;2.11;75.10;100858.75;4161675;28;20049;-62
2021/12/06 04:40:39;;;;;;;;;;;;;;;2.01;75.23;100858.22;4179037;28;20048;-60
2021/12/06 04:42:43;;;;;;;43.53;27.38;;;;;;;2.16;75.02;100859.88;4178932;28;19931;-61
2021/12/06 04:44:46;;;;;;;43.22;27.55;;;;;;;2.16;75.06;100857.31;4180079;28;20098;-60
2021/12/06 04:46:50;;;;;;;42.20;25.98;;;;;;;2.19;75.07;100860.03;4162274;28;20103;-61
2021/12/06 04:48:55;;;;;;;39.53;24.00;;;;;;;2.26;74.67;100867.28;4178832;28;20049;-62
2021/12/06 04:50:58;;;;;;;43.58;26.50;;;;;;;2.34;73.96;100867.72;4161261;28;20084;-60
2021/12/06 04:53:05;;;;;;;40.40;25.35;;;;;;;2.32;74.24;100866.72;4146294;28;20054;-60
2021/12/06 04:55:16;;;;;;;41.03;24.70;;;;;;;2.33;74.40;100869.38;4179853;28;20045;-59
2021/12/06 04:57:24;;;;;;;43.42;25.33;;;;;;;2.42;73.39;100863.84;4163211;28;20041;-57
2021/12/06 04:59:32;;;;;;;39.42;24.63;;;;;;;2.42;73.46;100875.03;4162918;28;20042;-60
2021/12/06 05:01:37;;;;;;;37.65;23.67;;;;;;;2.39;73.02;100868.81;4179240;28;20115;-61
2021/12/06 05:03:41;;;;;;;37.13;23.40;;;;;;;2.35;73.16;100877.16;4161974;28;20061;-60
2021/12/06 05:05:49;;;;;;;37.78;23.38;;;;;;;2.38;73.66;100873.09;4162173;28;20049;-61
2021/12/06 05:07:59;;;;;;;40.47;25.20;;;;;;;2.46;72.60;100875.19;4158294;28;20454;-61
2021/12/06 05:10:03;;;;;;;42.63;23.75;;;;;;;2.39;72.90;100874.81;4156504;28;20064;-59
2021/12/06 05:12:09;;;;;;;34.70;22.70;;;;;;;2.41;73.15;100882.59;4179592;28;20425;-58
2021/12/06 05:14:14;;;;;;;39.28;24.67;;;;;;;2.44;74.27;100891.38;4161440;28;20048;-60
2021/12/06 05:16:17;;;;;;;45.10;27.17;;;;;;;2.47;73.89;100892.31;4173605;28;20037;-58
2021/12/06 05:18:21;;;;;;;39.42;25.50;;;;;;;2.48;73.46;100897.53;4162169;28;20577;-60
2021/12/06 05:20:25;;;;;;;39.23;24.13;;;;;;;2.52;73.07;100911.44;4160272;28;20522;-59
2021/12/06 05:22:29;;;;;;;43.70;26.95;;;;;;;2.56;72.57;100903.09;4162080;28;20053;-60
2021/12/06 05:24:32;;;;;;;42.13;26.73;;;;;;;2.46;72.44;100911.09;4162278;28;20063;-62
2021/12/06 05:26:36;;;;;;;41.95;25.27;;;;;;;2.42;72.97;100910.94;4178584;28;20099;-60
2021/12/06 05:28:43;;;;;;;41.30;25.75;;;;;;;2.37;73.73;100912.34;4162025;28;20045;-59
2021/12/06 05:30:48;;;;;;;44.70;26.50;;;;;;;2.40;73.16;100915.09;4161237;28;20553;-60
2021/12/06 05:32:53;;;;;;;43.17;25.92;;;;;;;2.44;73.62;100918.72;4176150;28;20041;-60
2021/12/06 05:35:02;;;;;;;38.60;24.48;;;;;;;2.48;73.19;100914.63;4178539;28;20056;-59
2021/12/06 05:37:06;;;;;;;40.08;25.58;;;;;;;2.51;72.80;100925.97;4179699;28;20079;-58
2021/12/06 05:39:11;;;;;;;41.15;24.25;;;;;;;2.54;72.70;100920.97;4174735;28;20029;-59
2021/12/06 05:41:14;;;;;;;;;;;;;;;2.33;73.15;100925.81;4163370;28;20091;-60
2021/12/06 05:43:17;;;;;;;39.25;23.58;;;;;;;2.37;73.03;100926.88;4162991;28;19936;-61
2021/12/06 05:45:23;;;;;;;39.65;24.55;;;;;;;2.41;72.68;100937.38;4162330;28;20047;-59
2021/12/06 05:47:26;;;;;;;38.58;24.13;;;;;;;2.35;72.90;100933.59;4162780;28;20414;-60
2021/12/06 05:49:29;;;;;;;36.45;24.48;;;;;;;2.32;72.95;100942.00;4169472;28;20111;-61
2021/12/06 05:51:32;;;;;;;37.45;22.67;;;;;;;2.33;73.04;100943.78;4167583;28;20048;-60
2021/12/06 05:53:35;;;;;;;42.20;25.33;;;;;;;2.44;73.15;100945.25;4182662;28;20498;-61
2021/12/06 05:55:40;;;;;;;38.55;23.80;;;;;;;2.50;72.76;100946.38;4182431;28;20045;-60
2021/12/06 05:57:43;;;;;;;42.25;25.90;;;;;;;2.46;72.74;100937.63;4182318;28;20045;-61
2021/12/06 05:59:46;;;;;;;37.53;23.85;;;;;;;2.37;72.83;100950.84;4193552;28;20037;-60
2021/12/06 06:01:52;;;;;;;40.88;25.60;;;;;;;2.37;73.38;100945.72;4178880;28;20271;-61
2021/12/06 06:03:55;;;;;;;39.92;25.13;;;;;;;2.41;73.23;100949.31;4170943;28;20045;-61
2021/12/06 06:05:58;;;;;;;39.85;25.73;;;;;;;2.41;72.96;100950.22;4154429;28;20211;-59
2021/12/06 06:08:02;;;;;;;40.80;24.88;;;;;;;2.40;73.27;100951.00;4181703;28;20493;-60
2021/12/06 06:10:06;;;;;;;40.47;24.17;;;;;;;2.41;72.68;100954.44;4175778;28;20048;-59
2021/12/06 06:12:11;;;;;;;38.20;23.27;;;;;;;2.44;73.12;100950.38;4180966;28;20056;-61
2021/12/06 06:14:14;;;;;;;37.97;25.10;;;;;;;2.47;72.98;100959.03;4179874;28;20037;-59
2021/12/06 06:16:20;;;;;;;38.67;24.92;;;;;;;2.48;72.97;100963.38;4177001;28;20152;-61
2021/12/06 06:18:23;;;;;;;40.08;22.85;;;;;;;2.50;73.40;100965.25;4163309;28;20416;-60
2021/12/06 06:20:30;;;;;;;37.60;23.67;;;;;;;2.54;72.54;100966.28;4179182;28;20410;-60
2021/12/06 06:22:33;;;;;;;38.25;23.77;;;;;;;2.60;71.83;100964.94;4180866;28;20067;-59
2021/12/06 06:24:36;;;;;;;34.20;22.30;;;;;;;2.53;71.85;100964.53;4173921;28;20116;-60
2021/12/06 06:26:39;;;;;;;34.80;22.80;;;;;;;2.50;71.84;100972.03;4180062;28;20509;-58
2021/12/06 06:28:43;;;;;;;34.03;22.42;;;;;;;2.36;72.31;100977.28;4176336;28;20560;-60
2021/12/06 06:30:46;;;;;;;34.00;23.25;;;;;;;2.33;72.65;100978.81;4177824;28;20048;-60
2021/12/06 06:32:49;;;;;;;35.20;23.30;;;;;;;2.37;71.75;100988.47;4169464;28;20041;-61
2021/12/06 06:34:52;;;;;;;34.88;22.63;;;;;;;2.30;71.80;100989.78;4177997;28;20300;-61
2021/12/06 06:36:56;;;;;;;38.22;23.60;;;;;;;2.26;72.72;100991.31;4175256;28;20044;-61
2021/12/06 06:38:59;;;;;;;32.75;21.48;;;;;;;2.30;72.18;100997.47;4177485;28;20049;-60
2021/12/06 06:41:02;;;;;;;32.90;22.35;;;;;;;2.32;71.76;100995.00;4176168;28;20051;-60
2021/12/06 06:43:05;;;;;;;34.83;21.80;;;;;;;2.19;72.05;100998.56;4181980;28;20037;-61
2021/12/06 06:45:14;;;;;;;31.45;20.73;;;;;;;2.18;72.16;101007.06;4169443;28;20045;-61
2021/12/06 06:47:17;;;;;;;34.45;22.38;;;;;;;2.09;72.19;101008.31;4178915;28;20049;-58
2021/12/06 06:49:20;;;;;;;31.85;20.35;;;;;;;2.01;72.50;101006.97;4183146;28;20548;-59
2021/12/06 06:51:23;;;;;;;31.52;19.75;;;;;;;1.89;73.24;101008.84;4180491;28;20496;-58
2021/12/06 06:53:27;;;;;;;36.00;22.52;;;;;;;1.85;72.69;101022.25;4181449;28;20409;-59
2021/12/06 06:55:31;;;;;;;31.48;21.65;;;;;;;1.73;73.11;101019.88;4176567;28;20095;-58
2021/12/06 06:57:34;;;;;;;32.33;21.40;;;;;;;1.83;75.10;101024.75;4165481;28;20510;-56
2021/12/06 06:59:38;;;;;;;35.65;21.95;;;;;;;1.93;74.70;101023.59;4170852;28;20042;-60
2021/12/06 07:01:45;;;;;;;36.08;23.58;;;;;;;2.10;74.13;101027.13;4163288;28;20048;-59
2021/12/06 07:03:50;;;;;;;32.05;21.83;;;;;;;2.23;74.01;101026.16;4165132;28;20046;-58
2021/12/06 07:05:53;;;;;;;31.33;20.75;;;;;;;2.37;72.85;101027.81;4162882;28;20034;-58
2021/12/06 07:07:57;;;;;;;34.55;21.77;;;;;;;2.33;72.10;101031.00;4162574;28;20107;-59
2021/12/06 07:10:00;;;;;;;33.28;22.33;;;;;;;2.30;72.19;101029.97;4166419;28;20029;-59
2021/12/06 07:12:05;;;;;;;32.17;20.38;;;;;;;2.26;71.84;101028.88;4156881;28;20454;-57
2021/12/06 07:14:08;;;;;;;;;;;;;;;2.02;71.32;101019.00;4155762;28;20252;-58
2021/12/06 07:16:11;;;;;;;31.25;19.73;;;;;;;1.89;71.98;101021.66;4161152;28;20377;-58
2021/12/06 07:18:16;;;;;;;32.47;21.17;;;;;;;1.80;72.32;101031.38;4161592;28;20453;-58
2021/12/06 07:20:20;;;;;;;33.00;20.17;;;;;;;1.71;72.43;101032.59;4155264;28;20037;-60
2021/12/06 07:22:23;;;;;;;35.70;23.02;;;;;;;1.70;72.01;101027.38;4159937;28;20076;-58
2021/12/06 07:24:27;;;;;;;35.40;22.65;;;;;;;1.68;71.98;101042.66;4170213;28;20072;-59
2021/12/06 07:26:31;;;;;;;32.15;20.63;;;;;;;1.51;72.95;101040.78;4162917;28;20459;-59
2021/12/06 07:28:35;;;;;;;35.10;22.63;;;;;;;1.55;72.79;101045.31;4163213;28;20038;-59
2021/12/06 07:30:38;;;;;;;33.22;22.27;;;;;;;1.55;72.80;101053.84;4156690;28;20534;-58
2021/12/06 07:32:41;;;;;;;34.85;21.58;;;;;;;1.54;72.45;101052.09;4163658;28;20532;-61
2021/12/06 07:34:47;;;;;;;33.28;21.63;;;;;;;1.56;72.56;101063.31;4158026;28;20467;-60
2021/12/06 07:36:50;;;;;;;30.63;21.25;;;;;;;1.62;73.02;101065.38;4162675;28;20052;-58
2021/12/06 07:38:53;;;;;;;33.90;22.85;;;;;;;1.75;72.72;101064.41;4156525;28;20048;-61
2021/12/06 07:40:57;;;;;;;35.17;23.05;;;;;;;1.87;71.69;101062.59;4162552;28;20033;-59
2021/12/06 07:43:00;;;;;;;37.58;23.88;;;;;;;1.84;71.52;101067.53;4166427;28;20466;-62
2021/12/06 07:45:04;;;;;;;35.33;22.90;;;;;;;1.85;71.88;101073.53;4152029;28;20041;-64
2021/12/06 07:47:08;;;;;;;34.97;22.75;;;;;;;1.86;71.94;101065.06;4157773;28;20119;-59
2021/12/06 07:49:11;;;;;;;35.60;23.93;;;;;;;1.91;71.65;101069.66;4156998;28;20058;-57
2021/12/06 07:51:17;;;;;;;34.95;24.35;;;;;;;1.93;71.93;101074.88;4160141;28;20299;-58
2021/12/06 07:53:20;;;;;;;35.10;24.10;;;;;;;1.96;71.40;101082.75;4162758;28;20103;-55
2021/12/06 07:55:30;;;;;;;39.00;23.98;;;;;;;2.05;70.61;101080.72;4160363;28;20060;-60
2021/12/06 07:57:33;;;;;;;36.17;22.70;;;;;;;1.97;70.67;101081.97;4167835;28;20517;-61
2021/12/06 07:59:37;;;;;;;39.63;25.23;;;;;;;2.01;70.68;101078.75;4160049;28;20049;-60
2021/12/06 08:01:40;;;;;;;38.47;25.10;;;;;;;2.00;70.68;101082.16;4192181;28;20439;-60
2021/12/06 08:03:44;;;;;;;34.85;22.73;;;;;;;1.99;70.84;101076.94;4162286;28;20572;-60
2021/12/06 08:05:49;;;;;;;34.33;23.40;;;;;;;1.97;70.34;101078.50;4161439;28;20107;-60
2021/12/06 08:07:54;;;;;;;;;;;;;;;1.84;70.88;101075.22;4162151;28;20123;-59
2021/12/06 08:09:57;;;;;;;35.65;21.95;;;;;;;1.88;70.96;101074.63;4159905;28;20034;-58
2021/12/06 08:12:00;;;;;;;38.35;23.48;;;;;;;1.87;69.93;101082.19;4193295;28;20499;-57
2021/12/06 08:14:04;;;;;;;34.67;23.58;;;;;;;1.84;69.75;101080.34;4158972;28;20037;-59
2021/12/06 08:16:10;;;;;;;36.53;23.27;;;;;;;1.64;70.53;101089.41;4162496;28;20554;-59
2021/12/06 08:18:13;;;;;;;35.67;23.67;;;;;;;1.68;70.03;101090.47;4161489;28;20295;-60
2021/12/06 08:20:20;;;;;;;39.42;25.00;;;;;;;1.64;70.61;101086.84;4161638;28;20041;-60
2021/12/06 08:22:23;;;;;;;38.22;24.83;;;;;;;1.76;70.78;101103.75;4162327;28;20495;-60
2021/12/06 08:24:28;;;;;;;34.25;22.63;;;;;;;1.86;70.42;101106.94;4162801;28;20052;-60
2021/12/06 08:26:33;;;;;;;;;;;;;;;1.85;69.89;101100.03;4163015;28;20072;-60
2021/12/06 08:28:36;;;;;;;38.13;23.65;;;;;;;1.91;69.88;101110.69;4160949;28;19964;-59
2021/12/06 08:30:39;;;;;;;39.08;24.23;;;;;;;2.02;69.85;101105.31;4160200;28;20458;-58
2021/12/06 08:32:51;;;;;;;37.70;24.52;;;;;;;2.15;68.98;101105.22;4159091;28;20049;-61
2021/12/06 08:35:09;;;;;;;35.80;23.10;;;;;;;2.08;69.46;101103.09;4162471;28;20051;-62
2021/12/06 08:37:12;;;;;;;35.85;25.45;;;;;;;2.13;69.10;101100.81;4159422;28;20083;-60
2021/12/06 08:39:15;;;;;;;41.03;26.33;;;;;;;2.16;68.54;101098.41;4163580;28;20115;-61
2021/12/06 08:41:21;;;;;;;43.13;26.10;;;;;;;2.11;69.18;101098.16;4161982;28;20087;-60
2021/12/06 08:43:27;;;;;;;40.35;26.05;;;;;;;2.15;69.02;101099.22;4162272;28;20065;-60
2021/12/06 08:45:32;;;;;;;39.80;23.93;;;;;;;2.19;68.62;101096.03;4157377;28;20049;-58
2021/12/06 08:47:35;;;;;;;37.03;25.48;;;;;;;2.17;68.80;101097.63;4157580;28;20425;-58
2021/12/06 08:49:38;;;;;;;35.47;23.10;;;;;;;2.20;68.65;101102.94;4160359;28;20037;-58
2021/12/06 08:51:48;;;;;;;41.20;25.65;;;;;;;2.23;68.97;101095.41;4190851;28;20159;-57
2021/12/06 08:53:52;;;;;;;41.00;25.80;;;;;;;2.22;68.69;101097.09;4159764;28;20057;-61
2021/12/06 08:55:56;;;;;;;39.50;26.08;;;;;;;2.22;68.40;101099.66;4164215;28;20041;-61
2021/12/06 08:58:01;;;;;;;38.35;27.17;;;;;;;2.21;69.16;101107.28;4160018;28;20042;-60
2021/12/06 09:00:06;;;;;;;42.15;27.88;;;;;;;2.27;69.02;101099.94;4185239;28;20049;-61
2021/12/06 09:02:09;;;;;;;41.92;26.33;;;;;;;2.37;67.90;101109.06;4164262;28;20072;-62
2021/12/06 09:04:37;;;;;;;35.80;23.20;;;;;;;2.38;67.73;101100.53;4157236;28;20049;-60
2021/12/06 09:06:44;;;;;;;35.13;23.98;;;;;;;2.51;67.70;101107.25;4160336;28;20120;-60
2021/12/06 09:08:47;;;;;;;41.00;25.48;;;;;;;2.55;66.94;101111.78;4159046;28;20029;-61
2021/12/06 09:10:53;;;;;;;38.70;24.58;;;;;;;2.58;67.68;101099.13;4162651;28;20057;-59
2021/12/06 09:12:56;;;;;;;36.38;24.27;;;;;;;2.57;66.74;101107.59;4163013;28;20068;-61
2021/12/06 09:15:06;;;;;;;35.45;24.38;;;;;;;2.65;66.61;101111.50;4165355;28;20413;-61
2021/12/06 09:17:09;;;;;;;36.38;24.45;;;;;;;2.73;67.10;101117.97;4164470;28;20045;-60
2021/12/06 09:19:15;;;;;;;38.75;26.10;;;;;;;2.81;65.83;101120.09;4159182;28;20405;-61
2021/12/06 09:21:21;;;;;;;39.30;24.75;;;;;;;2.74;66.77;101113.72;4162939;28;20044;-61
2021/12/06 09:23:25;;;;;;;39.35;24.85;;;;;;;2.77;66.31;101114.78;4159060;28;20108;-61
2021/12/06 09:25:31;;;;;;;40.90;27.15;;;;;;;2.72;66.73;101121.31;4163736;28;20037;-62
2021/12/06 09:27:35;;;;;;;41.58;27.35;;;;;;;2.69;66.47;101116.03;4157522;28;20045;-60
2021/12/06 09:29:38;;;;;;;40.22;26.02;;;;;;;2.67;67.41;101116.72;4170847;28;20124;-61
2021/12/06 09:31:43;;;;;;;38.38;25.13;;;;;;;2.70;67.12;101112.66;4172339;28;20048;-58
2021/12/06 09:33:46;;;;;;;36.08;25.77;;;;;;;2.76;67.58;101112.09;4157457;28;20048;-56
2021/12/06 09:35:50;;;;;;;38.47;25.90;;;;;;;2.89;67.19;101119.72;4165147;28;20044;-60
2021/12/06 09:37:54;;;;;;;44.20;26.10;;;;;;;3.03;67.03;101122.16;4161369;28;20494;-58
2021/12/06 09:39:59;;;;;;;33.80;22.88;;;;;;;3.11;65.80;101116.66;4162888;28;20490;-60
2021/12/06 09:42:03;;;;;;;36.97;24.73;;;;;;;3.16;65.71;101113.44;4161785;28;20060;-61
2021/12/06 09:44:09;;;;;;;41.05;27.02;;;;;;;3.12;66.09;101123.53;4164334;28;20499;-60